Time,TemperatureF,DewpointF,PressureIn,WindDirection,WindDirectionDegrees,WindSpeedMPH,WindSpeedGustMPH,Humidity,HourlyPrecipIn,Conditions,Clouds,dailyrainin,SoftwareType,DateUTC
2013-10-19 00:00:00,57.2,41.2,30.33,West,274,0.0,0.0,55,0.00,,,0.00,Wunderground v.1.15,2013-10-19 07:00:00,
2013-10-19 00:05:00,57.2,41.2,30.33,West,274,0.0,0.0,55,0.00,,,0.00,Wunderground v.1.15,2013-10-19 07:05:00,
2013-10-19 00:15:00,56.9,40.9,30.33,West,274,0.0,0.0,55,0.00,,,0.00,Wunderground v.1.15,2013-10-19 07:15:00,
2013-10-19 00:20:00,56.6,41.5,30.33,West,274,0.0,0.0,57,0.00,,,0.00,Wunderground v.1.15,2013-10-19 07:20:00,
2013-10-19 00:30:00,55.8,41.2,30.33,West,274,0.0,0.0,58,0.00,,,0.00,Wunderground v.1.15,2013-10-19 07:30:00,
2013-10-19 00:40:00,54.8,41.6,30.33,West,274,0.0,0.0,61,0.00,,,0.00,Wunderground v.1.15,2013-10-19 07:40:00,
2013-10-19 00:50:00,55.1,41.0,30.33,West,274,0.0,0.0,59,0.00,,,0.00,Wunderground v.1.15,2013-10-19 07:50:00,
2013-10-19 01:00:00,54.8,41.6,30.33,West,274,0.0,0.0,61,0.00,,,0.00,Wunderground v.1.15,2013-10-19 08:00:00,
2013-10-19 01:10:00,55.5,43.5,30.33,West,274,0.0,0.0,64,0.00,,,0.00,Wunderground v.1.15,2013-10-19 08:10:00,
2013-10-19 01:20:00,55.6,44.0,30.33,West,274,0.0,0.0,65,0.00,,,0.00,Wunderground v.1.15,2013-10-19 08:20:00,
2013-10-19 01:30:00,54.6,43.1,30.34,West,274,0.0,0.0,65,0.00,,,0.00,Wunderground v.1.15,2013-10-19 08:30:00,
2013-10-19 01:40:00,53.9,42.8,30.33,West,274,0.0,0.0,66,0.00,,,0.00,Wunderground v.1.15,2013-10-19 08:40:00,
2013-10-19 01:50:00,54.1,42.6,30.34,West,274,0.0,0.0,65,0.00,,,0.00,Wunderground v.1.15,2013-10-19 08:50:00,
2013-10-19 02:00:00,54.3,42.4,30.34,West,274,0.0,0.0,64,0.00,,,0.00,Wunderground v.1.15,2013-10-19 09:00:00,
2013-10-19 02:10:00,53.7,41.8,30.34,West,274,0.0,0.0,64,0.00,,,0.00,Wunderground v.1.15,2013-10-19 09:10:00,
2013-10-19 02:15:00,53.2,42.1,30.34,West,274,0.0,0.0,66,0.00,,,0.00,Wunderground v.1.15,2013-10-19 09:15:00,
2013-10-19 02:25:00,52.4,42.1,30.34,West,274,0.0,0.0,68,0.00,,,0.00,Wunderground v.1.15,2013-10-19 09:25:00,
2013-10-19 02:35:00,52.0,41.0,30.35,West,274,0.0,0.0,66,0.00,,,0.00,Wunderground v.1.15,2013-10-19 09:35:00,
2013-10-19 02:45:00,50.9,41.5,30.35,West,274,0.0,0.0,70,0.00,,,0.00,Wunderground v.1.15,2013-10-19 09:45:00,
2013-10-19 02:55:00,50.2,41.5,30.34,West,274,0.0,0.0,72,0.00,,,0.00,Wunderground v.1.15,2013-10-19 09:55:00,
2013-10-19 03:00:00,50.2,42.6,30.34,West,274,0.0,0.0,75,0.00,,,0.00,Wunderground v.1.15,2013-10-19 10:00:00,
2013-10-19 03:05:00,50.6,43.0,30.35,West,274,0.0,0.0,75,0.00,,,0.00,Wunderground v.1.15,2013-10-19 10:05:00,
2013-10-19 03:15:00,51.2,42.8,30.34,West,274,0.0,0.0,73,0.00,,,0.00,Wunderground v.1.15,2013-10-19 10:15:00,
2013-10-19 03:20:00,51.3,42.6,30.35,West,274,0.0,0.0,72,0.00,,,0.00,Wunderground v.1.15,2013-10-19 10:20:00,
2013-10-19 03:30:00,51.6,42.1,30.35,West,274,0.0,0.0,70,0.00,,,0.00,Wunderground v.1.15,2013-10-19 10:30:00,
2013-10-19 03:40:00,50.7,41.3,30.34,West,274,0.0,0.0,70,0.00,,,0.00,Wunderground v.1.15,2013-10-19 10:40:00,
2013-10-19 03:50:00,49.9,41.6,30.35,West,274,0.0,0.0,73,0.00,,,0.00,Wunderground v.1.15,2013-10-19 10:50:00,
2013-10-19 04:00:00,50.5,41.8,30.35,West,274,0.0,0.0,72,0.00,,,0.00,Wunderground v.1.15,2013-10-19 11:00:00,
2013-10-19 04:10:00,51.0,42.3,30.35,West,274,0.0,0.0,72,0.00,,,0.00,Wunderground v.1.15,2013-10-19 11:10:00,
2013-10-19 04:15:00,51.2,42.8,30.35,West,274,0.0,0.0,73,0.00,,,0.00,Wunderground v.1.15,2013-10-19 11:15:00,
2013-10-19 04:25:00,51.1,43.1,30.35,West,274,0.0,0.0,74,0.00,,,0.00,Wunderground v.1.15,2013-10-19 11:25:00,
2013-10-19 04:35:00,50.9,43.6,30.35,West,274,0.0,0.0,76,0.00,,,0.00,Wunderground v.1.15,2013-10-19 11:35:00,
2013-10-19 04:45:00,50.9,43.6,30.35,West,274,0.0,0.0,76,0.00,,,0.00,Wunderground v.1.15,2013-10-19 11:45:00,
2013-10-19 04:50:00,50.5,42.9,30.35,West,274,0.0,0.0,75,0.00,,,0.00,Wunderground v.1.15,2013-10-19 11:50:00,
2013-10-19 05:00:00,49.4,41.8,30.35,West,274,0.0,0.0,75,0.00,,,0.00,Wunderground v.1.15,2013-10-19 12:00:00,
2013-10-19 05:10:00,48.7,42.5,30.35,West,274,0.0,0.0,79,0.00,,,0.00,Wunderground v.1.15,2013-10-19 12:10:00,
2013-10-19 05:15:00,48.9,43.0,30.35,West,274,0.0,0.0,80,0.00,,,0.00,Wunderground v.1.15,2013-10-19 12:15:00,
2013-10-19 05:25:00,49.6,43.0,30.36,West,274,0.0,0.0,78,0.00,,,0.00,Wunderground v.1.15,2013-10-19 12:25:00,
2013-10-19 05:35:00,49.8,42.9,30.36,West,274,0.0,0.0,77,0.00,,,0.00,Wunderground v.1.15,2013-10-19 12:35:00,
2013-10-19 05:45:00,49.3,41.7,30.36,West,274,0.0,0.0,75,0.00,,,0.00,Wunderground v.1.15,2013-10-19 12:45:00,
2013-10-19 05:55:00,48.3,41.8,30.36,West,274,0.0,0.0,78,0.00,,,0.00,Wunderground v.1.15,2013-10-19 12:55:00,
2013-10-19 06:00:00,48.1,42.2,30.36,West,274,0.0,0.0,80,0.00,,,0.00,Wunderground v.1.15,2013-10-19 13:00:00,
2013-10-19 06:10:00,48.5,42.9,30.36,West,274,0.0,0.0,81,0.00,,,0.00,Wunderground v.1.15,2013-10-19 13:10:00,
2013-10-19 06:15:00,48.7,43.5,30.36,West,274,0.0,0.0,82,0.00,,,0.00,Wunderground v.1.15,2013-10-19 13:15:00,
2013-10-19 06:20:00,48.7,43.8,30.37,West,274,0.0,0.0,83,0.00,,,0.00,Wunderground v.1.15,2013-10-19 13:20:00,
2013-10-19 06:30:00,48.3,43.4,30.37,West,274,0.0,0.0,83,0.00,,,0.00,Wunderground v.1.15,2013-10-19 13:30:00,
2013-10-19 06:35:00,48.1,42.9,30.37,West,274,0.0,0.0,82,0.00,,,0.00,Wunderground v.1.15,2013-10-19 13:35:00,
2013-10-19 06:45:00,47.9,42.7,30.37,West,274,0.0,0.0,82,0.00,,,0.00,Wunderground v.1.15,2013-10-19 13:45:00,
2013-10-19 06:55:00,47.3,42.1,30.37,West,274,0.0,0.0,82,0.00,,,0.00,Wunderground v.1.15,2013-10-19 13:55:00,
2013-10-19 07:00:00,47.3,42.4,30.38,West,274,0.0,0.0,83,0.00,,,0.00,Wunderground v.1.15,2013-10-19 14:00:00,
2013-10-19 07:10:00,47.9,43.0,30.37,West,274,0.0,0.0,83,0.00,,,0.00,Wunderground v.1.15,2013-10-19 14:10:00,
2013-10-19 07:15:00,48.0,43.1,30.37,West,274,0.0,0.0,83,0.00,,,0.00,Wunderground v.1.15,2013-10-19 14:15:00,
2013-10-19 07:25:00,47.2,42.0,30.37,West,274,0.0,0.0,82,0.00,,,0.00,Wunderground v.1.15,2013-10-19 14:25:00,
2013-10-19 07:35:00,46.9,42.0,30.38,West,274,0.0,0.0,83,0.00,,,0.00,Wunderground v.1.15,2013-10-19 14:35:00,
2013-10-19 07:45:00,46.3,41.1,30.38,West,274,0.0,0.0,82,0.00,,,0.00,Wunderground v.1.15,2013-10-19 14:45:00,
2013-10-19 07:50:00,46.8,42.5,30.38,West,274,0.0,0.0,85,0.00,,,0.00,Wunderground v.1.15,2013-10-19 14:50:00,
2013-10-19 08:00:00,49.9,44.0,30.38,West,274,0.0,0.0,80,0.00,,,0.00,Wunderground v.1.15,2013-10-19 15:00:00,
2013-10-19 08:10:00,51.9,44.9,30.39,West,274,0.0,0.0,77,0.00,,,0.00,Wunderground v.1.15,2013-10-19 15:10:00,
2013-10-19 08:15:00,52.5,44.4,30.39,West,274,0.0,0.0,74,0.00,,,0.00,Wunderground v.1.15,2013-10-19 15:15:00,
2013-10-19 08:25:00,52.7,43.9,30.39,West,274,0.0,0.0,72,0.00,,,0.00,Wunderground v.1.15,2013-10-19 15:25:00,
2013-10-19 08:30:00,52.9,44.1,30.39,West,274,0.0,0.0,72,0.00,,,0.00,Wunderground v.1.15,2013-10-19 15:30:00,
2013-10-19 08:40:00,53.3,44.5,30.39,West,276,0.0,0.0,72,0.00,,,0.00,Wunderground v.1.15,2013-10-19 15:40:00,
2013-10-19 08:50:00,54.1,45.3,30.40,West,275,0.0,0.0,72,0.00,,,0.00,Wunderground v.1.15,2013-10-19 15:50:00,
2013-10-19 08:55:00,54.8,45.2,30.40,West,276,0.0,0.0,70,0.00,,,0.00,Wunderground v.1.15,2013-10-19 15:55:00,
2013-10-19 09:00:00,54.8,45.2,30.40,West,276,0.0,0.0,70,0.00,,,0.00,Wunderground v.1.15,2013-10-19 16:00:00,
2013-10-19 09:05:00,55.0,46.1,30.40,West,276,0.0,0.0,72,0.00,,,0.00,Wunderground v.1.15,2013-10-19 16:05:00,
2013-10-19 09:15:00,55.6,46.3,30.40,WSW,240,0.0,0.0,71,0.00,,,0.00,Wunderground v.1.15,2013-10-19 16:15:00,
2013-10-19 09:25:00,56.2,46.5,30.40,SW,235,0.0,1.0,70,0.00,,,0.00,Wunderground v.1.15,2013-10-19 16:25:00,
2013-10-19 09:35:00,56.1,46.4,30.40,SW,235,1.0,1.0,70,0.00,,,0.00,Wunderground v.1.15,2013-10-19 16:35:00,
2013-10-19 09:45:00,56.6,46.5,30.40,West,278,1.0,1.0,69,0.00,,,0.00,Wunderground v.1.15,2013-10-19 16:45:00,
2013-10-19 09:55:00,57.5,46.2,30.40,NNW,340,0.0,2.0,66,0.00,,,0.00,Wunderground v.1.15,2013-10-19 16:55:00,
2013-10-19 10:00:00,58.1,43.4,30.40,NW,304,1.0,1.0,58,0.00,,,0.00,Wunderground v.1.15,2013-10-19 17:00:00,
2013-10-19 10:10:00,59.0,45.1,30.40,NW,306,1.0,1.0,60,0.00,,,0.00,Wunderground v.1.15,2013-10-19 17:10:00,
2013-10-19 10:20:00,60.3,45.0,30.40,West,278,1.0,1.0,57,0.00,,,0.00,Wunderground v.1.15,2013-10-19 17:20:00,
2013-10-19 10:30:00,61.0,44.7,30.39,WNW,302,1.0,2.0,55,0.00,,,0.00,Wunderground v.1.15,2013-10-19 17:30:00,
2013-10-19 10:40:00,61.9,40.9,30.39,NNE,16,1.0,1.0,46,0.00,,,0.00,Wunderground v.1.15,2013-10-19 17:40:00,
2013-10-19 10:50:00,62.5,39.7,30.39,North,1,2.0,2.0,43,0.00,,,0.00,Wunderground v.1.15,2013-10-19 17:50:00,
2013-10-19 11:00:00,63.5,40.6,30.39,North,6,1.0,1.0,43,0.00,,,0.00,Wunderground v.1.15,2013-10-19 18:00:00,
2013-10-19 11:10:00,65.2,40.3,30.39,North,4,1.0,1.0,40,0.00,,,0.00,Wunderground v.1.15,2013-10-19 18:10:00,
2013-10-19 11:15:00,65.8,40.1,30.38,NE,52,1.0,1.0,39,0.00,,,0.00,Wunderground v.1.15,2013-10-19 18:15:00,
2013-10-19 11:25:00,67.1,40.6,30.38,NNE,23,1.0,2.0,38,0.00,,,0.00,Wunderground v.1.15,2013-10-19 18:25:00,
2013-10-19 11:35:00,68.1,39.4,30.38,East,82,1.0,1.0,35,0.00,,,0.00,Wunderground v.1.15,2013-10-19 18:35:00,
2013-10-19 11:45:00,69.9,41.0,30.38,NNE,18,1.0,2.0,35,0.00,,,0.00,Wunderground v.1.15,2013-10-19 18:45:00,
2013-10-19 11:55:00,70.7,40.2,30.37,ENE,58,1.0,2.0,33,0.00,,,0.00,Wunderground v.1.15,2013-10-19 18:55:00,
2013-10-19 12:00:00,71.0,38.8,30.37,North,8,1.0,1.0,31,0.00,,,0.00,Wunderground v.1.15,2013-10-19 19:00:00,
2013-10-19 12:10:00,71.4,43.0,30.37,North,355,1.0,2.0,36,0.00,,,0.00,Wunderground v.1.15,2013-10-19 19:10:00,
2013-10-19 12:15:00,71.4,38.3,30.37,NW,326,1.0,2.0,30,0.00,,,0.00,Wunderground v.1.15,2013-10-19 19:15:00,
2013-10-19 12:25:00,71.4,40.8,30.36,West,269,2.0,2.0,33,0.00,,,0.00,Wunderground v.1.15,2013-10-19 19:25:00,
2013-10-19 12:30:00,71.6,41.7,30.36,West,269,2.0,2.0,34,0.00,,,0.00,Wunderground v.1.15,2013-10-19 19:30:00,
2013-10-19 12:35:00,72.1,40.6,30.36,West,275,2.0,2.0,32,0.00,,,0.00,Wunderground v.1.15,2013-10-19 19:35:00,
2013-10-19 12:45:00,72.9,40.5,30.36,WSW,256,2.0,2.0,31,0.00,,,0.00,Wunderground v.1.15,2013-10-19 19:45:00,
2013-10-19 12:55:00,73.7,39.5,30.35,West,266,2.0,2.0,29,0.00,,,0.00,Wunderground v.1.15,2013-10-19 19:55:00,
2013-10-19 13:00:00,74.0,37.9,30.35,WNW,283,2.0,3.0,27,0.00,,,0.00,Wunderground v.1.15,2013-10-19 20:00:00,
2013-10-19 13:10:00,74.2,38.1,30.35,West,259,3.0,3.0,27,0.00,,,0.00,Wunderground v.1.15,2013-10-19 20:10:00,
2013-10-19 13:15:00,74.2,37.1,30.34,WNW,300,3.0,3.0,26,0.00,,,0.00,Wunderground v.1.15,2013-10-19 20:15:00,
2013-10-19 13:25:00,75.7,39.3,30.34,WNW,289,2.0,3.0,27,0.00,,,0.00,Wunderground v.1.15,2013-10-19 20:25:00,
2013-10-19 13:35:00,76.8,39.3,30.33,West,273,2.0,2.0,26,0.00,,,0.00,Wunderground v.1.15,2013-10-19 20:35:00,
2013-10-19 13:45:00,76.8,38.3,30.33,West,269,2.0,3.0,25,0.00,,,0.00,Wunderground v.1.15,2013-10-19 20:45:00,
2013-10-19 13:55:00,77.2,38.6,30.32,WNW,288,2.0,2.0,25,0.00,,,0.00,Wunderground v.1.15,2013-10-19 20:55:00,
2013-10-19 14:00:00,78.4,38.6,30.32,West,266,1.0,1.0,24,0.00,,,0.00,Wunderground v.1.15,2013-10-19 21:00:00,
2013-10-19 14:10:00,79.7,38.6,30.31,WSW,242,2.0,2.0,23,0.00,,,0.00,Wunderground v.1.15,2013-10-19 21:10:00,
2013-10-19 14:20:00,80.3,39.1,30.31,WSW,242,1.0,1.0,23,0.00,,,0.00,Wunderground v.1.15,2013-10-19 21:20:00,
2013-10-19 14:30:00,79.9,39.9,30.31,SW,233,2.0,2.0,24,0.00,,,0.00,Wunderground v.1.15,2013-10-19 21:30:00,
2013-10-19 14:40:00,80.5,35.7,30.31,West,263,1.0,1.0,20,0.00,,,0.00,Wunderground v.1.15,2013-10-19 21:40:00,
2013-10-19 14:50:00,81.7,35.4,30.31,East,91,1.0,1.0,19,0.00,,,0.00,Wunderground v.1.15,2013-10-19 21:50:00,
2013-10-19 15:00:00,82.2,34.5,30.30,NW,316,1.0,2.0,18,0.00,,,0.00,Wunderground v.1.15,2013-10-19 22:00:00,
2013-10-19 15:10:00,82.0,34.3,30.30,NNW,337,2.0,2.0,18,0.00,,,0.00,Wunderground v.1.15,2013-10-19 22:10:00,
2013-10-19 15:20:00,82.1,35.7,30.30,NW,321,2.0,3.0,19,0.00,,,0.00,Wunderground v.1.15,2013-10-19 22:20:00,
2013-10-19 15:30:00,81.5,35.2,30.30,NW,309,3.0,3.0,19,0.00,,,0.00,Wunderground v.1.15,2013-10-19 22:30:00,
2013-10-19 15:40:00,81.6,32.5,30.30,North,354,2.0,2.0,17,0.00,,,0.00,Wunderground v.1.15,2013-10-19 22:40:00,
2013-10-19 15:50:00,81.3,33.7,30.30,North,351,2.0,2.0,18,0.00,,,0.00,Wunderground v.1.15,2013-10-19 22:50:00,
2013-10-19 16:00:00,80.9,33.4,30.30,NNW,346,3.0,3.0,18,0.00,,,0.00,Wunderground v.1.15,2013-10-19 23:00:00,
2013-10-19 16:10:00,81.0,33.5,30.30,NNE,24,2.0,2.0,18,0.00,,,0.00,Wunderground v.1.15,2013-10-19 23:10:00,
2013-10-19 16:15:00,81.1,34.9,30.29,North,349,2.0,3.0,19,0.00,,,0.00,Wunderground v.1.15,2013-10-19 23:15:00,
2013-10-19 16:25:00,81.0,32.1,30.29,NE,40,2.0,3.0,17,0.00,,,0.00,Wunderground v.1.15,2013-10-19 23:25:00,
2013-10-19 16:30:00,81.0,33.5,30.29,NNE,13,2.0,2.0,18,0.00,,,0.00,Wunderground v.1.15,2013-10-19 23:30:00,
2013-10-19 16:40:00,81.1,34.9,30.29,ESE,110,1.0,1.0,19,0.00,,,0.00,Wunderground v.1.15,2013-10-19 23:40:00,
2013-10-19 16:50:00,81.1,36.2,30.29,NNE,29,1.0,1.0,20,0.00,,,0.00,Wunderground v.1.15,2013-10-19 23:50:00,
2013-10-19 16:55:00,81.1,37.5,30.29,NNE,15,1.0,1.0,21,0.00,,,0.00,Wunderground v.1.15,2013-10-19 23:55:00,
2013-10-19 17:00:00,81.1,37.5,30.29,NNE,12,1.0,1.0,21,0.00,,,0.00,Wunderground v.1.15,2013-10-20 00:00:00,
2013-10-19 17:05:00,81.0,37.4,30.29,North,8,1.0,2.0,21,0.00,,,0.00,Wunderground v.1.15,2013-10-20 00:05:00,
2013-10-19 17:15:00,80.9,37.3,30.29,ENE,75,1.0,2.0,21,0.00,,,0.00,Wunderground v.1.15,2013-10-20 00:15:00,
2013-10-19 17:25:00,80.5,38.1,30.29,East,79,2.0,2.0,22,0.00,,,0.00,Wunderground v.1.15,2013-10-20 00:25:00,
2013-10-19 17:35:00,80.0,38.9,30.29,ENE,58,3.0,4.0,23,0.00,,,0.00,Wunderground v.1.15,2013-10-20 00:35:00,
2013-10-19 17:45:00,79.5,38.4,30.28,SSE,148,2.0,3.0,23,0.00,,,0.00,Wunderground v.1.15,2013-10-20 00:45:00,
2013-10-19 17:55:00,78.8,38.9,30.28,ESE,111,1.0,2.0,24,0.00,,,0.00,Wunderground v.1.15,2013-10-20 00:55:00,
2013-10-19 18:00:00,78.2,38.4,30.28,SE,124,1.0,1.0,24,0.00,,,0.00,Wunderground v.1.15,2013-10-20 01:00:00,
2013-10-19 18:05:00,77.9,39.2,30.28,ESE,117,1.0,1.0,25,0.00,,,0.00,Wunderground v.1.15,2013-10-20 01:05:00,
2013-10-19 18:15:00,77.1,38.6,30.28,East,88,1.0,1.0,25,0.00,,,0.00,Wunderground v.1.15,2013-10-20 01:15:00,
2013-10-19 18:25:00,76.5,39.0,30.29,East,79,1.0,2.0,26,0.00,,,0.00,Wunderground v.1.15,2013-10-20 01:25:00,
2013-10-19 18:35:00,76.0,39.6,30.29,ESE,106,2.0,2.0,27,0.00,,,0.00,Wunderground v.1.15,2013-10-20 01:35:00,
2013-10-19 18:45:00,75.3,39.0,30.29,ESE,123,1.0,1.0,27,0.00,,,0.00,Wunderground v.1.15,2013-10-20 01:45:00,
2013-10-19 18:55:00,74.3,39.1,30.29,East,88,1.0,1.0,28,0.00,,,0.00,Wunderground v.1.15,2013-10-20 01:55:00,
2013-10-19 19:00:00,73.8,39.5,30.29,NNE,15,0.0,1.0,29,0.00,,,0.00,Wunderground v.1.15,2013-10-20 02:00:00,
2013-10-19 19:05:00,73.4,39.2,30.29,NNE,14,1.0,1.0,29,0.00,,,0.00,Wunderground v.1.15,2013-10-20 02:05:00,
2013-10-19 19:15:00,72.4,39.2,30.29,WNW,299,0.0,1.0,30,0.00,,,0.00,Wunderground v.1.15,2013-10-20 02:15:00,
2013-10-19 19:20:00,72.0,38.9,30.30,SE,139,1.0,1.0,30,0.00,,,0.00,Wunderground v.1.15,2013-10-20 02:20:00,
2013-10-19 19:25:00,71.6,38.5,30.30,SE,128,1.0,1.0,30,0.00,,,0.00,Wunderground v.1.15,2013-10-20 02:25:00,
2013-10-19 19:35:00,70.9,39.6,30.30,SE,135,0.0,0.0,32,0.00,,,0.00,Wunderground v.1.15,2013-10-20 02:35:00,
2013-10-19 19:50:00,71.2,39.0,30.30,ESE,120,1.0,1.0,31,0.00,,,0.00,Wunderground v.1.15,2013-10-20 02:50:00,
2013-10-19 19:55:00,71.4,39.2,30.30,ESE,120,1.0,1.0,31,0.00,,,0.00,Wunderground v.1.15,2013-10-20 02:55:00,
2013-10-19 20:00:00,71.1,38.9,30.30,SE,126,1.0,1.0,31,0.00,,,0.00,Wunderground v.1.15,2013-10-20 03:00:00,
2013-10-19 20:10:00,70.2,38.9,30.30,SE,126,1.0,1.0,32,0.00,,,0.00,Wunderground v.1.15,2013-10-20 03:10:00,
2013-10-19 20:20:00,69.0,39.4,30.30,ESE,109,0.0,0.0,34,0.00,,,0.00,Wunderground v.1.15,2013-10-20 03:20:00,
2013-10-19 20:30:00,69.4,39.8,30.31,East,91,1.0,1.0,34,0.00,,,0.00,Wunderground v.1.15,2013-10-20 03:30:00,
2013-10-19 20:40:00,70.1,39.6,30.31,East,96,2.0,2.0,33,0.00,,,0.00,Wunderground v.1.15,2013-10-20 03:40:00,
2013-10-19 20:50:00,70.1,39.6,30.31,SE,126,1.0,1.0,33,0.00,,,0.00,Wunderground v.1.15,2013-10-20 03:50:00,
2013-10-19 21:00:00,68.8,39.3,30.31,West,281,0.0,0.0,34,0.00,,,0.00,Wunderground v.1.15,2013-10-20 04:00:00,
2013-10-19 21:05:00,68.1,39.4,30.31,West,281,0.0,0.0,35,0.00,,,0.00,Wunderground v.1.15,2013-10-20 04:05:00,
2013-10-19 21:15:00,66.8,39.7,30.31,SW,228,0.0,0.0,37,0.00,,,0.00,Wunderground v.1.15,2013-10-20 04:15:00,
2013-10-19 21:25:00,65.2,38.9,30.32,SW,218,0.0,0.0,38,0.00,,,0.00,Wunderground v.1.15,2013-10-20 04:25:00,
2013-10-19 21:35:00,64.9,39.3,30.31,ESE,103,1.0,2.0,39,0.00,,,0.00,Wunderground v.1.15,2013-10-20 04:35:00,
2013-10-19 21:40:00,65.4,39.8,30.31,ESE,122,1.0,1.0,39,0.00,,,0.00,Wunderground v.1.15,2013-10-20 04:40:00,
2013-10-19 21:45:00,65.3,39.7,30.32,ESE,105,1.0,1.0,39,0.00,,,0.00,Wunderground v.1.15,2013-10-20 04:45:00,
2013-10-19 21:55:00,64.7,39.2,30.32,ESE,117,1.0,1.0,39,0.00,,,0.00,Wunderground v.1.15,2013-10-20 04:55:00,
2013-10-19 22:00:00,64.2,39.4,30.32,SE,126,0.0,0.0,40,0.00,,,0.00,Wunderground v.1.15,2013-10-20 05:00:00,
2013-10-19 22:10:00,63.1,39.6,30.32,SE,126,0.0,0.0,42,0.00,,,0.00,Wunderground v.1.15,2013-10-20 05:10:00,
2013-10-19 22:15:00,62.4,39.6,30.32,SE,125,0.0,1.0,43,0.00,,,0.00,Wunderground v.1.15,2013-10-20 05:15:00,
2013-10-19 22:25:00,61.8,39.1,30.33,NNW,328,1.0,1.0,43,0.00,,,0.00,Wunderground v.1.15,2013-10-20 05:25:00,
2013-10-19 22:30:00,61.8,40.2,30.33,WNW,285,1.0,1.0,45,0.00,,,0.00,Wunderground v.1.15,2013-10-20 05:30:00,
2013-10-19 22:35:00,61.8,40.2,30.33,WNW,285,1.0,1.0,45,0.00,,,0.00,Wunderground v.1.15,2013-10-20 05:35:00,
2013-10-19 22:45:00,60.9,39.4,30.33,WNW,288,0.0,1.0,45,0.00,,,0.00,Wunderground v.1.15,2013-10-20 05:45:00,
2013-10-19 22:50:00,60.5,39.6,30.33,WNW,288,0.0,0.0,46,0.00,,,0.00,Wunderground v.1.15,2013-10-20 05:50:00,
2013-10-19 23:00:00,61.0,40.6,30.33,WNW,288,0.0,0.0,47,0.00,,,0.00,Wunderground v.1.15,2013-10-20 06:00:00,
2013-10-19 23:10:00,60.7,41.4,30.33,WNW,288,0.0,0.0,49,0.00,,,0.00,Wunderground v.1.15,2013-10-20 06:10:00,
2013-10-19 23:15:00,60.7,43.5,30.33,WNW,288,0.0,0.0,53,0.00,,,0.00,Wunderground v.1.15,2013-10-20 06:15:00,
2013-10-19 23:20:00,60.3,43.6,30.33,WNW,288,0.0,0.0,54,0.00,,,0.00,Wunderground v.1.15,2013-10-20 06:20:00,
2013-10-19 23:30:00,59.8,40.6,30.33,WNW,288,0.0,0.0,49,0.00,,,0.00,Wunderground v.1.15,2013-10-20 06:30:00,
2013-10-19 23:35:00,59.2,40.6,30.33,WNW,288,0.0,0.0,50,0.00,,,0.00,Wunderground v.1.15,2013-10-20 06:35:00,
2013-10-19 23:40:00,59.1,42.5,30.32,WNW,288,0.0,0.0,54,0.00,,,0.00,Wunderground v.1.15,2013-10-20 06:40:00,
2013-10-19 23:50:00,59.5,42.8,30.32,WNW,288,0.0,0.0,54,0.00,,,0.00,Wunderground v.1.15,2013-10-20 06:50:00,